createdAt,value
2019-03-26T00:00:02.213Z,27.14
2019-03-26T00:01:02.215Z,27.17
2019-03-26T00:02:02.215Z,27.21
2019-03-26T00:03:02.218Z,27.14
2019-03-26T00:04:05.969Z,27.17
2019-03-26T00:05:02.225Z,27.10
2019-03-26T00:06:02.226Z,27.10
2019-03-26T00:07:02.228Z,27.13
2019-03-26T00:08:02.236Z,27.13
2019-03-26T00:09:02.235Z,27.13
2019-03-26T00:10:02.239Z,27.10
2019-03-26T00:11:02.244Z,27.13
2019-03-26T00:12:02.244Z,27.09
2019-03-26T00:13:02.245Z,27.13
2019-03-26T00:14:02.249Z,27.09
2019-03-26T00:15:02.253Z,27.17
2019-03-26T00:16:02.255Z,27.17
2019-03-26T00:17:02.258Z,27.14
2019-03-26T00:18:02.260Z,27.12
2019-03-26T00:19:02.262Z,27.10
2019-03-26T00:20:02.265Z,27.14
2019-03-26T00:21:02.268Z,27.13
2019-03-26T00:22:02.271Z,27.14
2019-03-26T00:23:02.273Z,27.13
2019-03-26T00:24:02.276Z,27.13
2019-03-26T00:25:02.279Z,27.17
2019-03-26T00:26:02.285Z,27.12
2019-03-26T00:27:02.287Z,27.12
2019-03-26T00:28:02.288Z,27.12
2019-03-26T00:29:02.291Z,27.10
2019-03-26T00:30:02.293Z,27.17
2019-03-26T00:31:02.300Z,27.12
2019-03-26T00:32:02.300Z,27.13
2019-03-26T00:33:02.302Z,27.10
2019-03-26T00:34:02.307Z,27.13
2019-03-26T00:35:02.305Z,27.13
2019-03-26T00:36:02.318Z,27.10
2019-03-26T00:37:02.311Z,27.13
2019-03-26T00:38:02.314Z,27.19
2019-03-26T00:39:02.317Z,27.13
2019-03-26T00:40:02.321Z,27.06
2019-03-26T00:41:02.323Z,27.10
2019-03-26T00:42:02.326Z,27.17
2019-03-26T00:43:02.327Z,27.13
2019-03-26T00:44:02.336Z,27.13
2019-03-26T00:45:02.332Z,27.12
2019-03-26T00:46:02.335Z,27.17
2019-03-26T00:47:02.338Z,27.14
2019-03-26T00:48:02.341Z,27.13
2019-03-26T00:49:02.345Z,27.10
2019-03-26T00:50:02.347Z,27.14
2019-03-26T00:51:02.349Z,27.14
2019-03-26T00:52:02.352Z,27.06
2019-03-26T00:53:02.357Z,27.10
2019-03-26T00:54:02.369Z,27.13
2019-03-26T00:55:02.361Z,27.13
2019-03-26T00:56:02.362Z,27.12
2019-03-26T00:57:02.366Z,27.13
2019-03-26T00:58:02.453Z,27.14
2019-03-26T00:59:02.371Z,27.13
2019-03-26T01:00:02.374Z,27.10
2019-03-26T01:01:02.377Z,27.10
2019-03-26T01:02:02.380Z,27.13
2019-03-26T01:03:02.394Z,27.07
2019-03-26T01:04:02.385Z,27.07
2019-03-26T01:05:02.389Z,27.10
2019-03-26T01:06:02.389Z,27.10
2019-03-26T01:07:02.394Z,27.13
2019-03-26T01:08:02.395Z,27.14
2019-03-26T01:09:02.401Z,27.12
2019-03-26T01:10:02.401Z,27.14
2019-03-26T01:11:02.404Z,27.13
2019-03-26T01:12:02.408Z,27.10
2019-03-26T01:13:02.411Z,27.06
2019-03-26T01:14:02.412Z,27.09
2019-03-26T01:15:02.421Z,27.13
2019-03-26T01:16:02.419Z,27.12
2019-03-26T01:17:02.421Z,27.12
2019-03-26T01:18:02.424Z,27.12
2019-03-26T01:19:02.427Z,27.10
2019-03-26T01:20:02.429Z,27.13
2019-03-26T01:21:02.432Z,27.10
2019-03-26T01:22:02.433Z,27.12
2019-03-26T01:23:02.438Z,27.12
2019-03-26T01:24:02.440Z,27.19
2019-03-26T01:25:02.443Z,27.13
2019-03-26T01:26:02.445Z,27.14
2019-03-26T01:27:02.449Z,27.13
2019-03-26T01:28:02.455Z,27.13
2019-03-26T01:29:02.454Z,27.10
2019-03-26T01:30:02.456Z,27.13
2019-03-26T01:31:02.458Z,27.09
2019-03-26T01:32:02.462Z,27.14
2019-03-26T01:33:02.462Z,27.07
2019-03-26T01:34:02.479Z,27.09
2019-03-26T01:35:02.469Z,27.13
2019-03-26T01:36:02.473Z,27.14
2019-03-26T01:37:02.476Z,27.13
2019-03-26T01:38:02.477Z,27.12
2019-03-26T01:39:02.478Z,27.14
2019-03-26T01:40:02.483Z,27.13
2019-03-26T01:41:02.489Z,27.13
2019-03-26T01:42:02.488Z,27.18
2019-03-26T01:43:02.493Z,27.18
2019-03-26T01:44:02.496Z,27.10
2019-03-26T01:45:02.503Z,27.14
2019-03-26T01:46:02.499Z,27.12
2019-03-26T01:47:02.503Z,27.09
2019-03-26T01:48:02.506Z,27.09
2019-03-26T01:49:02.511Z,27.09
2019-03-26T01:50:02.511Z,27.14
2019-03-26T01:51:02.514Z,27.18
2019-03-26T01:52:02.516Z,27.18
2019-03-26T01:53:02.523Z,27.07
2019-03-26T01:54:02.521Z,27.14
2019-03-26T01:55:02.524Z,27.18
2019-03-26T01:56:02.536Z,27.21
2019-03-26T01:57:02.530Z,27.13
2019-03-26T01:58:02.532Z,27.18
2019-03-26T01:59:02.536Z,27.06
2019-03-26T02:00:02.539Z,27.13
2019-03-26T02:01:02.542Z,27.18
2019-03-26T02:02:02.544Z,27.17
2019-03-26T02:03:02.549Z,27.18
2019-03-26T02:04:02.549Z,27.18
2019-03-26T02:05:02.553Z,27.03
2019-03-26T02:06:02.554Z,27.18
2019-03-26T02:07:02.558Z,27.07
2019-03-26T02:08:02.565Z,27.12
2019-03-26T02:09:02.564Z,27.07
2019-03-26T02:10:02.565Z,27.06
2019-03-26T02:11:02.570Z,27.18
2019-03-26T02:12:02.571Z,27.12
2019-03-26T02:13:02.574Z,27.12
2019-03-26T02:14:02.576Z,27.18
2019-03-26T02:15:02.579Z,27.12
2019-03-26T02:16:02.586Z,27.18
2019-03-26T02:17:02.598Z,27.18
2019-03-26T02:18:02.591Z,27.13
2019-03-26T02:19:02.591Z,27.10
2019-03-26T02:20:02.591Z,27.13
2019-03-26T02:21:02.596Z,27.12
2019-03-26T02:22:02.598Z,27.14
2019-03-26T02:23:02.601Z,27.10
2019-03-26T02:24:02.604Z,27.06
2019-03-26T02:25:02.613Z,27.13
2019-03-26T02:26:02.610Z,27.10
2019-03-26T02:27:02.611Z,27.13
2019-03-26T02:28:02.621Z,27.13
2019-03-26T02:29:02.622Z,27.12
2019-03-26T02:30:02.627Z,27.21
2019-03-26T02:31:02.624Z,27.12
2019-03-26T02:32:02.628Z,27.14
2019-03-26T02:33:02.638Z,27.09
2019-03-26T02:34:02.631Z,27.09
2019-03-26T02:35:17.003Z,27.18
2019-03-26T02:36:02.645Z,27.13
2019-03-26T02:37:02.641Z,27.18
2019-03-26T02:38:02.643Z,27.17
2019-03-26T02:39:02.644Z,27.17
2019-03-26T02:40:02.647Z,27.17
2019-03-26T02:41:02.651Z,27.14
2019-03-26T02:42:02.651Z,27.14
2019-03-26T02:43:02.656Z,27.18
2019-03-26T02:44:02.660Z,27.10
2019-03-26T02:45:02.660Z,27.10
2019-03-26T02:46:02.671Z,27.18
2019-03-26T02:47:02.677Z,27.12
2019-03-26T02:48:02.672Z,27.07
2019-03-26T02:49:02.677Z,27.13
2019-03-26T02:50:02.676Z,27.09
2019-03-26T02:51:02.684Z,27.12
2019-03-26T02:52:02.687Z,27.13
2019-03-26T02:53:02.704Z,27.10
2019-03-26T02:54:02.687Z,27.13
2019-03-26T02:55:02.689Z,27.12
2019-03-26T02:56:02.691Z,27.07
2019-03-26T02:57:02.697Z,27.12
2019-03-26T02:58:02.701Z,27.19
2019-03-26T02:59:02.716Z,27.18
2019-03-26T03:00:02.709Z,27.12
2019-03-26T03:01:02.708Z,27.17
2019-03-26T03:02:02.707Z,27.13
2019-03-26T03:03:02.722Z,27.09
2019-03-26T03:04:02.725Z,27.14
2019-03-26T03:05:02.717Z,27.12
2019-03-26T03:06:02.732Z,27.12
2019-03-26T03:07:02.722Z,27.06
2019-03-26T03:08:02.724Z,27.07
2019-03-26T03:09:02.727Z,27.17
2019-03-26T03:10:02.730Z,27.18
2019-03-26T03:11:02.733Z,27.17
2019-03-26T03:12:02.743Z,27.18
2019-03-26T03:13:02.761Z,27.18
2019-03-26T03:14:02.745Z,27.10
2019-03-26T03:15:02.749Z,27.18
2019-03-26T03:16:02.750Z,27.10
2019-03-26T03:17:02.747Z,27.14
2019-03-26T03:18:02.753Z,27.12
2019-03-26T03:19:02.756Z,27.13
2019-03-26T03:20:02.766Z,27.13
2019-03-26T03:21:02.763Z,27.18
2019-03-26T03:22:02.770Z,27.17
2019-03-26T03:23:02.766Z,27.10
2019-03-26T03:24:02.773Z,27.18
2019-03-26T03:25:02.771Z,27.07
2019-03-26T03:26:02.780Z,27.18
2019-03-26T03:27:02.784Z,27.10
2019-03-26T03:28:02.779Z,27.13
2019-03-26T03:29:02.787Z,27.10
2019-03-26T03:30:02.791Z,27.13
2019-03-26T03:31:02.795Z,27.19
2019-03-26T03:32:02.795Z,27.07
2019-03-26T03:33:02.796Z,27.19
2019-03-26T03:34:02.798Z,27.10
2019-03-26T03:35:02.808Z,27.19
2019-03-26T03:36:02.803Z,27.09
2019-03-26T03:37:02.803Z,27.13
2019-03-26T03:38:02.804Z,27.13
2019-03-26T03:39:02.810Z,27.07
2019-03-26T03:40:02.813Z,27.10
2019-03-26T03:41:02.826Z,27.17
2019-03-26T03:42:02.820Z,27.21
2019-03-26T03:43:02.821Z,27.21
2019-03-26T03:44:02.901Z,27.13
2019-03-26T03:45:02.826Z,27.17
2019-03-26T03:46:02.832Z,27.03
2019-03-26T03:47:02.830Z,27.13
2019-03-26T03:48:02.834Z,27.17
2019-03-26T03:49:02.856Z,27.06
2019-03-26T03:50:02.850Z,27.09
2019-03-26T03:51:02.971Z,27.18
2019-03-26T03:52:02.844Z,27.12
2019-03-26T03:53:02.849Z,27.06
2019-03-26T03:54:02.849Z,27.18
2019-03-26T03:55:02.851Z,27.14
2019-03-26T03:56:02.883Z,27.13
2019-03-26T03:57:02.859Z,27.17
2019-03-26T03:58:02.869Z,27.14
2019-03-26T03:59:02.861Z,27.12
2019-03-26T04:00:02.877Z,27.18
2019-03-26T04:01:02.875Z,27.13
2019-03-26T04:02:02.871Z,27.18
2019-03-26T04:03:02.873Z,27.14
2019-03-26T04:04:02.877Z,27.10
2019-03-26T04:05:02.880Z,27.10
2019-03-26T04:06:09.417Z,27.12
2019-03-26T04:07:02.900Z,27.10
2019-03-26T04:08:02.896Z,27.12
2019-03-26T04:09:02.898Z,27.12
2019-03-26T04:10:02.891Z,27.17
2019-03-26T04:11:02.899Z,27.14
2019-03-26T04:12:02.901Z,27.07
2019-03-26T04:13:02.903Z,27.14
2019-03-26T04:14:02.922Z,27.18
2019-03-26T04:15:02.911Z,27.21
2019-03-26T04:16:02.928Z,27.18
2019-03-26T04:17:02.914Z,27.13
2019-03-26T04:18:02.918Z,27.14
2019-03-26T04:19:02.921Z,27.18
2019-03-26T04:20:02.937Z,27.14
2019-03-26T04:21:02.935Z,27.12
2019-03-26T04:22:02.939Z,27.14
2019-03-26T04:23:02.927Z,27.13
2019-03-26T04:24:02.930Z,27.13
2019-03-26T04:25:02.939Z,27.17
2019-03-26T04:26:02.942Z,27.10
2019-03-26T04:27:02.939Z,27.13
2019-03-26T04:28:02.945Z,27.13
2019-03-26T04:29:02.954Z,27.18
2019-03-26T04:30:02.948Z,27.06
2019-03-26T04:31:02.953Z,27.12
2019-03-26T04:32:02.955Z,27.13
2019-03-26T04:33:02.978Z,27.10
2019-03-26T04:34:02.965Z,27.13
2019-03-26T04:35:02.969Z,27.14
2019-03-26T04:36:02.967Z,27.10
2019-03-26T04:37:02.969Z,27.10
2019-03-26T04:38:02.974Z,27.10
2019-03-26T04:39:02.977Z,27.10
2019-03-26T04:40:03.000Z,27.17
2019-03-26T04:41:02.980Z,27.10
2019-03-26T04:42:02.985Z,27.12
2019-03-26T04:43:02.998Z,27.18
2019-03-26T04:44:02.986Z,27.12
2019-03-26T04:45:02.993Z,27.10
2019-03-26T04:46:02.995Z,27.17
2019-03-26T04:47:02.997Z,27.14
2019-03-26T04:48:02.997Z,27.17
2019-03-26T04:49:03.002Z,27.04
2019-03-26T04:50:03.006Z,27.13
2019-03-26T04:51:03.009Z,27.13
2019-03-26T04:52:03.004Z,27.13
2019-03-26T04:53:03.012Z,27.07
2019-03-26T04:54:03.012Z,27.17
2019-03-26T04:55:03.016Z,27.17
2019-03-26T04:56:03.017Z,27.03
2019-03-26T04:57:03.022Z,27.17
2019-03-26T04:58:03.027Z,27.17
2019-03-26T04:59:03.031Z,27.13
2019-03-26T05:00:03.034Z,27.10
2019-03-26T05:01:03.032Z,27.09
2019-03-26T05:02:03.034Z,27.18
2019-03-26T05:03:03.037Z,27.13
2019-03-26T05:04:03.042Z,27.17
2019-03-26T05:05:03.046Z,27.13
2019-03-26T05:06:03.046Z,27.14
2019-03-26T05:07:03.053Z,27.07
2019-03-26T05:08:03.050Z,27.10
2019-03-26T05:09:03.053Z,27.18
2019-03-26T05:10:03.055Z,27.17
2019-03-26T05:11:03.059Z,27.04
2019-03-26T05:12:03.062Z,27.19
2019-03-26T05:13:03.064Z,27.14
2019-03-26T05:14:03.065Z,27.18
2019-03-26T05:15:03.074Z,27.03
2019-03-26T05:16:03.082Z,27.18
2019-03-26T05:17:03.084Z,27.06
2019-03-26T05:18:03.078Z,27.13
2019-03-26T05:19:03.080Z,27.03
2019-03-26T05:20:03.082Z,27.14
2019-03-26T05:21:03.095Z,27.14
2019-03-26T05:22:03.088Z,27.09
2019-03-26T05:23:03.091Z,27.13
2019-03-26T05:24:03.094Z,27.06
2019-03-26T05:25:03.099Z,27.09
2019-03-26T05:26:03.099Z,27.13
2019-03-26T05:27:03.104Z,27.07
2019-03-26T05:28:03.111Z,27.14
2019-03-26T05:29:03.113Z,27.13
2019-03-26T05:30:03.115Z,27.18
2019-03-26T05:31:03.115Z,27.14
2019-03-26T05:32:03.122Z,27.09
2019-03-26T05:33:03.121Z,27.13
2019-03-26T05:34:03.122Z,27.12
2019-03-26T05:35:03.124Z,27.06
2019-03-26T05:36:03.127Z,27.09
2019-03-26T05:37:03.132Z,27.09
2019-03-26T05:38:03.130Z,27.07
2019-03-26T05:39:03.134Z,27.10
2019-03-26T05:40:03.141Z,27.17
2019-03-26T05:41:03.142Z,27.07
2019-03-26T05:42:03.142Z,27.14
2019-03-26T05:43:03.145Z,27.12
2019-03-26T05:44:03.152Z,27.10
2019-03-26T05:45:03.157Z,27.13
2019-03-26T05:46:03.159Z,27.14
2019-03-26T05:47:03.173Z,27.21
2019-03-26T05:48:03.161Z,27.25
2019-03-26T05:49:03.163Z,27.25
2019-03-26T05:50:03.166Z,27.19
2019-03-26T05:51:03.167Z,27.25
2019-03-26T05:52:03.170Z,27.27
2019-03-26T05:53:03.173Z,27.28
2019-03-26T05:54:03.176Z,27.25
2019-03-26T05:55:03.184Z,27.36
2019-03-26T05:56:03.185Z,27.31
2019-03-26T05:57:03.187Z,27.37
2019-03-26T05:58:03.190Z,27.29
2019-03-26T05:59:03.192Z,27.41
2019-03-26T06:00:03.197Z,27.41
2019-03-26T06:01:03.202Z,27.39
2019-03-26T06:02:13.453Z,27.47
2019-03-26T06:03:03.255Z,27.39
2019-03-26T06:04:03.204Z,27.47
2019-03-26T06:05:03.207Z,27.55
2019-03-26T06:06:03.214Z,27.49
2019-03-26T06:07:05.201Z,27.54
2019-03-26T06:08:03.213Z,27.51
2019-03-26T06:09:03.219Z,27.59
2019-03-26T06:10:03.222Z,27.63
2019-03-26T06:11:03.226Z,27.54
2019-03-26T06:12:03.228Z,27.51
2019-03-26T06:13:03.231Z,27.65
2019-03-26T06:14:03.231Z,27.62
2019-03-26T06:15:03.235Z,27.67
2019-03-26T06:16:03.236Z,27.63
2019-03-26T06:17:03.243Z,27.72
2019-03-26T06:18:03.250Z,27.69
2019-03-26T06:19:03.247Z,27.75
2019-03-26T06:20:03.250Z,27.66
2019-03-26T06:21:03.288Z,27.69
2019-03-26T06:22:03.258Z,27.74
2019-03-26T06:23:03.260Z,27.81
2019-03-26T06:24:03.261Z,27.74
2019-03-26T06:25:03.267Z,27.77
2019-03-26T06:26:03.283Z,27.79
2019-03-26T06:27:03.276Z,27.82
2019-03-26T06:28:03.282Z,27.78
2019-03-26T06:29:03.282Z,27.74
2019-03-26T06:30:03.281Z,27.65
2019-03-26T06:31:03.282Z,27.78
2019-03-26T06:32:03.336Z,27.74
2019-03-26T06:33:03.293Z,27.79
2019-03-26T06:34:03.295Z,27.78
2019-03-26T06:35:03.301Z,27.85
2019-03-26T06:36:03.314Z,27.84
2019-03-26T06:37:03.304Z,27.78
2019-03-26T06:38:03.304Z,27.81
2019-03-26T06:39:03.308Z,27.81
2019-03-26T06:40:03.328Z,27.88
2019-03-26T06:41:03.314Z,27.92
2019-03-26T06:42:03.316Z,27.79
2019-03-26T06:43:03.320Z,27.94
2019-03-26T06:44:03.332Z,27.84
2019-03-26T06:45:03.326Z,27.88
2019-03-26T06:46:03.330Z,27.88
2019-03-26T06:47:03.332Z,27.85
2019-03-26T06:48:04.515Z,27.81
2019-03-26T06:49:03.343Z,27.84
2019-03-26T06:50:03.342Z,27.85
2019-03-26T06:51:03.345Z,27.94
2019-03-26T06:52:03.350Z,27.87
2019-03-26T06:53:03.351Z,27.87
2019-03-26T06:54:03.352Z,27.81
2019-03-26T06:55:03.357Z,27.82
2019-03-26T06:56:03.368Z,27.84
2019-03-26T06:57:03.362Z,27.85
2019-03-26T06:58:03.369Z,27.81
2019-03-26T06:59:03.372Z,27.81
2019-03-26T07:00:03.380Z,27.79
2019-03-26T07:01:03.377Z,27.93
2019-03-26T07:02:03.379Z,27.84
2019-03-26T07:03:03.381Z,27.88
2019-03-26T07:04:03.385Z,27.87
2019-03-26T07:05:03.390Z,27.90
2019-03-26T07:06:03.391Z,27.87
2019-03-26T07:07:03.395Z,27.81
2019-03-26T07:08:03.402Z,27.88
2019-03-26T07:09:03.402Z,27.92
2019-03-26T07:10:03.405Z,27.97
2019-03-26T07:11:03.408Z,27.85
2019-03-26T07:12:03.411Z,27.87
2019-03-26T07:13:03.417Z,27.96
2019-03-26T07:14:03.416Z,27.93
2019-03-26T07:15:03.420Z,27.87
2019-03-26T07:16:03.424Z,27.92
2019-03-26T07:17:03.425Z,27.92
2019-03-26T07:18:03.432Z,27.93
2019-03-26T07:19:03.439Z,27.92
2019-03-26T07:20:03.436Z,27.96
2019-03-26T07:21:03.438Z,27.93
2019-03-26T07:22:03.448Z,27.96
2019-03-26T07:23:03.450Z,27.97
2019-03-26T07:24:03.452Z,27.90
2019-03-26T07:25:03.453Z,27.90
2019-03-26T07:26:03.455Z,27.92
2019-03-26T07:27:03.458Z,27.92
2019-03-26T07:28:03.461Z,27.94
2019-03-26T07:29:03.465Z,27.97
2019-03-26T07:30:03.470Z,27.88
2019-03-26T07:31:03.477Z,27.93
2019-03-26T07:32:03.479Z,27.90
2019-03-26T07:33:03.482Z,27.93
2019-03-26T07:34:03.482Z,27.85
2019-03-26T07:35:03.488Z,27.90
2019-03-26T07:36:03.490Z,27.97
2019-03-26T07:37:03.499Z,27.88
2019-03-26T07:38:03.493Z,27.93
2019-03-26T07:39:03.496Z,27.88
2019-03-26T07:40:03.500Z,27.93
2019-03-26T07:41:03.514Z,27.88
2019-03-26T07:42:03.511Z,27.90
2019-03-26T07:43:03.509Z,27.92
2019-03-26T07:44:03.538Z,27.92
2019-03-26T07:45:03.545Z,27.90
2019-03-26T07:46:03.528Z,27.90
2019-03-26T07:47:03.520Z,27.92
2019-03-26T07:48:03.533Z,27.96
2019-03-26T07:49:03.530Z,27.88
2019-03-26T07:50:03.531Z,27.94
2019-03-26T07:51:03.539Z,27.97
2019-03-26T07:52:03.546Z,27.99
2019-03-26T07:53:03.559Z,27.93
2019-03-26T07:54:03.575Z,28.02
2019-03-26T07:55:03.554Z,28.00
2019-03-26T07:56:03.551Z,28.00
2019-03-26T07:57:03.558Z,27.96
2019-03-26T07:58:03.555Z,27.93
2019-03-26T07:59:03.561Z,27.99
2019-03-26T08:00:03.570Z,27.94
2019-03-26T08:01:03.577Z,28.00
2019-03-26T08:02:03.571Z,27.93
2019-03-26T08:03:03.572Z,27.94
2019-03-26T08:04:03.577Z,28.04
2019-03-26T08:05:03.579Z,27.99
2019-03-26T08:06:03.583Z,28.09
2019-03-26T08:07:03.589Z,28.07
2019-03-26T08:08:03.591Z,28.06
2019-03-26T08:09:03.594Z,28.07
2019-03-26T08:10:03.598Z,27.99
2019-03-26T08:11:03.603Z,28.04
2019-03-26T08:12:03.750Z,28.09
2019-03-26T08:13:03.668Z,28.04
2019-03-26T08:14:03.651Z,28.09
2019-03-26T08:15:03.677Z,28.00
2019-03-26T08:16:03.653Z,28.04
2019-03-26T08:17:03.669Z,28.00
2019-03-26T08:18:03.648Z,28.09
2019-03-26T08:19:03.649Z,28.14
2019-03-26T08:20:03.656Z,28.09
2019-03-26T08:21:03.676Z,28.11
2019-03-26T08:22:03.683Z,28.15
2019-03-26T08:23:03.668Z,28.19
2019-03-26T08:24:03.679Z,28.14
2019-03-26T08:25:03.701Z,28.19
2019-03-26T08:26:03.691Z,28.21
2019-03-26T08:27:03.687Z,28.18
2019-03-26T08:28:05.168Z,28.17
2019-03-26T08:29:03.671Z,28.18
2019-03-26T08:30:03.673Z,28.21
2019-03-26T08:31:03.665Z,28.22
2019-03-26T08:32:03.681Z,28.22
2019-03-26T08:33:03.672Z,28.12
2019-03-26T08:34:03.678Z,28.12
2019-03-26T08:35:03.682Z,28.12
2019-03-26T08:36:03.681Z,28.21
2019-03-26T08:37:03.690Z,28.17
2019-03-26T08:38:12.428Z,28.18
2019-03-26T08:39:03.690Z,28.18
2019-03-26T08:40:03.691Z,28.14
2019-03-26T08:41:03.697Z,28.11
2019-03-26T08:42:03.697Z,28.15
2019-03-26T08:43:03.708Z,28.17
2019-03-26T08:44:03.705Z,28.18
2019-03-26T08:45:03.726Z,28.17
2019-03-26T08:46:03.726Z,28.18
2019-03-26T08:47:03.714Z,28.06
2019-03-26T08:48:03.718Z,28.21
2019-03-26T08:49:03.724Z,28.19
2019-03-26T08:50:03.729Z,28.18
2019-03-26T08:51:03.728Z,28.12
2019-03-26T08:52:03.732Z,28.19
2019-03-26T08:53:03.753Z,28.18
2019-03-26T08:54:03.757Z,28.18
2019-03-26T08:55:04.414Z,28.19
2019-03-26T08:56:03.752Z,28.21
2019-03-26T08:57:03.761Z,28.24
2019-03-26T08:58:03.767Z,28.24
2019-03-26T08:59:03.756Z,28.22
2019-03-26T09:00:03.758Z,28.22
2019-03-26T09:01:03.765Z,28.27
2019-03-26T09:02:03.765Z,28.29
2019-03-26T09:03:03.771Z,28.24
2019-03-26T09:04:03.773Z,28.22
2019-03-26T09:05:03.782Z,28.29
2019-03-26T09:06:03.792Z,28.24
2019-03-26T09:07:03.784Z,28.29
2019-03-26T09:08:03.793Z,28.22
2019-03-26T09:09:03.803Z,28.31
2019-03-26T09:10:03.794Z,28.19
2019-03-26T09:11:03.801Z,28.18
2019-03-26T09:12:03.799Z,28.24
2019-03-26T09:13:03.805Z,28.14
2019-03-26T09:14:03.808Z,28.15
2019-03-26T09:15:03.844Z,28.19
2019-03-26T09:16:03.815Z,28.00
2019-03-26T09:17:03.817Z,28.06
2019-03-26T09:18:03.828Z,28.11
2019-03-26T09:19:03.847Z,28.03
2019-03-26T09:20:03.837Z,27.96
2019-03-26T09:21:03.832Z,27.88
2019-03-26T09:22:03.838Z,27.92
2019-03-26T09:23:03.834Z,27.96
2019-03-26T09:24:03.845Z,27.84
2019-03-26T09:25:03.862Z,27.93
2019-03-26T09:26:03.871Z,27.93
2019-03-26T09:27:03.869Z,27.87
2019-03-26T09:28:03.865Z,27.92
2019-03-26T09:29:03.863Z,27.96
2019-03-26T09:30:03.858Z,27.88
2019-03-26T09:31:03.865Z,27.92
2019-03-26T09:32:03.866Z,27.79
2019-03-26T09:33:03.870Z,27.93
2019-03-26T09:34:03.874Z,27.78
2019-03-26T09:35:03.886Z,27.84
2019-03-26T09:36:03.877Z,27.85
2019-03-26T09:37:03.882Z,27.81
2019-03-26T09:38:03.890Z,27.85
2019-03-26T09:39:03.890Z,27.84
2019-03-26T09:40:03.892Z,27.78
2019-03-26T09:41:03.896Z,27.78
2019-03-26T09:42:03.907Z,27.78
2019-03-26T09:43:03.900Z,27.78
2019-03-26T09:44:03.904Z,27.85
2019-03-26T09:45:03.910Z,27.77
2019-03-26T09:46:03.918Z,27.81
2019-03-26T09:47:15.681Z,27.65
2019-03-26T09:48:03.937Z,27.75
2019-03-26T09:49:03.919Z,27.79
2019-03-26T09:50:03.931Z,27.82
2019-03-26T09:51:03.929Z,27.78
2019-03-26T09:52:03.930Z,27.79
2019-03-26T09:53:03.933Z,27.70
2019-03-26T09:54:03.936Z,27.72
2019-03-26T09:55:03.938Z,27.67
2019-03-26T09:56:03.943Z,27.75
2019-03-26T09:57:03.961Z,27.72
2019-03-26T09:58:03.950Z,27.69
2019-03-26T09:59:03.950Z,27.70
2019-03-26T10:00:03.956Z,27.82
2019-03-26T10:01:03.959Z,27.69
2019-03-26T10:02:03.973Z,27.65
2019-03-26T10:03:03.976Z,27.70
2019-03-26T10:04:03.966Z,27.67
2019-03-26T10:05:03.985Z,27.66
2019-03-26T10:06:03.977Z,27.75
2019-03-26T10:07:03.979Z,27.70
2019-03-26T10:08:03.983Z,27.63
2019-03-26T10:09:04.011Z,27.72
2019-03-26T10:10:04.002Z,27.67
2019-03-26T10:11:03.991Z,27.69
2019-03-26T10:12:03.993Z,27.74
2019-03-26T10:13:03.994Z,27.67
2019-03-26T10:14:04.008Z,27.72
2019-03-26T10:15:04.016Z,27.75
2019-03-26T10:16:04.027Z,27.66
2019-03-26T10:17:04.047Z,27.65
2019-03-26T10:18:04.040Z,27.69
2019-03-26T10:19:04.100Z,27.60
2019-03-26T10:20:04.023Z,27.70
2019-03-26T10:21:04.031Z,27.70
2019-03-26T10:22:04.026Z,27.69
2019-03-26T10:23:04.049Z,27.75
2019-03-26T10:24:04.055Z,27.70
2019-03-26T10:25:04.035Z,27.69
2019-03-26T10:26:04.044Z,27.66
2019-03-26T10:27:04.047Z,27.72
2019-03-26T10:28:04.060Z,27.70
2019-03-26T10:29:18.757Z,27.69
2019-03-26T10:30:05.801Z,27.70
2019-03-26T10:31:04.051Z,27.74
2019-03-26T10:32:04.065Z,27.65
2019-03-26T10:33:04.058Z,27.74
2019-03-26T10:34:04.065Z,27.67
2019-03-26T10:35:04.062Z,27.69
2019-03-26T10:36:04.068Z,27.72
2019-03-26T10:37:04.070Z,27.77
2019-03-26T10:38:04.074Z,27.66
2019-03-26T10:39:05.489Z,27.65
2019-03-26T10:40:04.084Z,27.62
2019-03-26T10:41:04.082Z,27.67
2019-03-26T10:42:06.890Z,27.67
2019-03-26T10:43:04.087Z,27.66
2019-03-26T10:44:04.094Z,27.69
2019-03-26T10:45:04.095Z,27.69
2019-03-26T10:46:04.099Z,27.69
2019-03-26T10:47:04.101Z,27.77
2019-03-26T10:48:04.102Z,27.67
2019-03-26T10:49:04.110Z,27.62
2019-03-26T10:50:04.114Z,27.65
2019-03-26T10:51:04.115Z,27.67
2019-03-26T10:52:04.118Z,27.72
2019-03-26T10:53:04.118Z,27.65
2019-03-26T10:54:04.124Z,27.74
2019-03-26T10:55:04.126Z,27.63
2019-03-26T10:56:04.129Z,27.72
2019-03-26T10:57:04.134Z,27.70
2019-03-26T10:58:04.134Z,27.70
2019-03-26T10:59:04.449Z,27.66
2019-03-26T11:00:04.147Z,27.66
2019-03-26T11:01:04.148Z,27.70
2019-03-26T11:02:04.146Z,27.67
2019-03-26T11:03:04.163Z,27.69
2019-03-26T11:04:07.448Z,27.67
2019-03-26T11:05:04.217Z,27.75
2019-03-26T11:06:04.185Z,27.72
2019-03-26T11:07:04.200Z,27.65
2019-03-26T11:08:04.201Z,27.77
2019-03-26T11:09:04.192Z,27.65
2019-03-26T11:10:04.197Z,27.66
2019-03-26T11:11:04.227Z,27.67
2019-03-26T11:12:04.229Z,27.65
2019-03-26T11:13:04.240Z,27.77
2019-03-26T11:14:04.216Z,27.74
2019-03-26T11:15:04.212Z,27.70
2019-03-26T11:16:04.206Z,27.72
2019-03-26T11:17:04.193Z,27.72
2019-03-26T11:18:04.210Z,27.69
2019-03-26T11:19:04.209Z,27.66
2019-03-26T11:20:04.211Z,27.67
2019-03-26T11:21:04.217Z,27.69
2019-03-26T11:22:04.214Z,27.65
2019-03-26T11:23:04.214Z,27.65
2019-03-26T11:24:04.217Z,27.69
2019-03-26T11:25:04.222Z,27.65
2019-03-26T11:26:04.244Z,27.69
2019-03-26T11:27:04.238Z,27.63
2019-03-26T11:28:04.229Z,27.60
2019-03-26T11:29:04.230Z,27.60
2019-03-26T11:30:04.233Z,27.59
2019-03-26T11:31:04.236Z,27.66
2019-03-26T11:32:04.241Z,27.59
2019-03-26T11:33:04.243Z,27.63
2019-03-26T11:34:04.244Z,27.67
2019-03-26T11:35:04.246Z,27.60
2019-03-26T11:36:04.253Z,27.62
2019-03-26T11:37:04.255Z,27.55
2019-03-26T11:38:04.257Z,27.50
2019-03-26T11:39:04.259Z,27.60
2019-03-26T11:40:04.262Z,27.55
2019-03-26T11:41:04.267Z,27.60
2019-03-26T11:42:04.288Z,27.59
2019-03-26T11:43:04.272Z,27.63
2019-03-26T11:44:04.880Z,27.54
2019-03-26T11:45:04.288Z,27.66
2019-03-26T11:46:04.293Z,27.55
2019-03-26T11:47:04.296Z,27.51
2019-03-26T11:48:04.294Z,27.54
2019-03-26T11:49:04.292Z,27.54
2019-03-26T11:50:04.893Z,27.57
2019-03-26T11:51:04.307Z,27.57
2019-03-26T11:52:04.316Z,27.60
2019-03-26T11:53:04.310Z,27.60
2019-03-26T11:54:04.327Z,27.55
2019-03-26T11:55:04.333Z,27.57
2019-03-26T11:56:04.323Z,27.59
2019-03-26T11:57:04.320Z,27.67
2019-03-26T11:58:04.338Z,27.70
2019-03-26T11:59:04.373Z,27.62
2019-03-26T12:00:04.361Z,27.59
2019-03-26T12:01:04.404Z,27.57
2019-03-26T12:02:04.347Z,27.62
2019-03-26T12:03:04.350Z,27.66
2019-03-26T12:04:04.362Z,27.66
2019-03-26T12:05:04.339Z,27.62
2019-03-26T12:06:04.344Z,27.59
2019-03-26T12:07:04.343Z,27.62
2019-03-26T12:08:04.350Z,27.55
2019-03-26T12:09:04.354Z,27.54
2019-03-26T12:10:04.354Z,27.66
2019-03-26T12:11:04.421Z,27.62
2019-03-26T12:12:04.421Z,27.65
2019-03-26T12:13:04.428Z,27.54
2019-03-26T12:14:04.423Z,27.63
2019-03-26T12:15:04.427Z,27.60
2019-03-26T12:16:04.419Z,27.65
2019-03-26T12:17:04.404Z,27.57
2019-03-26T12:18:04.395Z,27.57
2019-03-26T12:19:04.392Z,27.63
2019-03-26T12:20:04.405Z,27.69
2019-03-26T12:21:04.395Z,27.57
2019-03-26T12:22:04.391Z,27.65
2019-03-26T12:23:04.393Z,27.72
2019-03-26T12:24:04.397Z,27.63
2019-03-26T12:25:04.401Z,27.65
2019-03-26T12:26:04.429Z,27.59
2019-03-26T12:27:04.406Z,27.67
2019-03-26T12:28:04.412Z,27.62
2019-03-26T12:29:04.412Z,27.69
2019-03-26T12:30:04.417Z,27.63
2019-03-26T12:31:04.420Z,27.70
2019-03-26T12:32:04.529Z,27.70
2019-03-26T12:33:04.426Z,27.62
2019-03-26T12:34:04.428Z,27.75
2019-03-26T12:35:04.440Z,27.67
2019-03-26T12:36:04.441Z,27.77
2019-03-26T12:37:04.490Z,27.65
2019-03-26T12:38:04.437Z,27.62
2019-03-26T12:39:04.443Z,27.65
2019-03-26T12:40:04.457Z,27.77
2019-03-26T12:41:04.518Z,27.66
2019-03-26T12:42:04.459Z,27.72
2019-03-26T12:43:04.454Z,27.66
2019-03-26T12:44:04.458Z,27.69
2019-03-26T12:45:06.960Z,27.66
2019-03-26T12:46:04.483Z,27.70
2019-03-26T12:47:04.481Z,27.72
2019-03-26T12:48:04.485Z,27.67
2019-03-26T12:49:04.524Z,27.67
2019-03-26T12:50:04.473Z,27.63
2019-03-26T12:51:04.477Z,27.69
2019-03-26T12:52:04.482Z,27.67